Time;durP1;ratioP1;P1;durP2;ratioP2;P2;SDS_P1;SDS_P2;PMS_P1;PMS_P2;Temp;Humidity;BMP_temperature;BMP_pressure;BME280_temperature;BME280_humidity;BME280_pressure;Samples;Min_cycle;Max_cycle;Signal;HPM_P1;HPM_P2
2022/11/11 00:01:45;;;;;;;16.17;14.67;;;;;;;7.64;100.00;98008.28;5054030;28;20234;-57
2022/11/11 00:04:12;;;;;;;14.97;13.47;;;;;;;7.64;100.00;98003.88;5054063;28;20294;-54
2022/11/11 00:06:38;;;;;;;16.40;14.77;;;;;;;7.77;100.00;98006.59;5054002;28;20619;-55
2022/11/11 00:09:07;;;;;;;16.63;14.83;;;;;;;7.81;100.00;98008.09;5054068;28;20326;-56
2022/11/11 00:11:33;;;;;;;16.97;14.97;;;;;;;7.88;100.00;98006.78;5053831;28;20242;-56
2022/11/11 00:14:00;;;;;;;15.97;14.37;;;;;;;7.92;100.00;98006.53;5054063;28;20252;-56
2022/11/11 00:25:04;;;;;;;15.27;13.77;;;;;;;7.97;100.00;98001.81;5054039;28;20513;-54
2022/11/11 00:27:26;;;;;;;18.77;14.17;;;;;;;8.06;100.00;97999.56;5052934;28;20734;-55
2022/11/11 00:29:52;;;;;;;16.50;14.80;;;;;;;8.07;100.00;97999.47;5058179;28;20677;-55
2022/11/11 00:32:23;;;;;;;16.80;14.23;;;;;;;8.11;100.00;98018.56;5057029;28;20274;-54
2022/11/11 00:37:34;;;;;;;16.93;14.57;;;;;;;8.22;100.00;98001.13;5057268;28;20524;-55
2022/11/11 00:40:02;;;;;;;15.17;13.37;;;;;;;8.28;100.00;98006.09;5064246;28;20635;-56
2022/11/11 00:42:28;;;;;;;18.73;15.53;;;;;;;8.28;100.00;98007.84;5064507;28;20703;-55
2022/11/11 00:44:55;;;;;;;17.17;14.73;;;;;;;8.31;100.00;98012.94;5058653;28;20678;-55
2022/11/11 00:52:57;;;;;;;15.37;13.20;;;;;;;8.34;100.00;98004.84;5057522;28;20218;-56
2022/11/11 00:55:26;;;;;;;17.83;14.23;;;;;;;8.36;100.00;98008.25;5058030;28;20238;-57
2022/11/11 00:57:54;;;;;;;16.07;14.00;;;;;;;8.34;100.00;98000.41;5058073;28;20214;-55
2022/11/11 01:00:21;;;;;;;18.00;13.93;;;;;;;8.39;100.00;98003.63;5056911;28;20630;-56
2022/11/11 01:02:47;;;;;;;15.33;13.60;;;;;;;8.39;100.00;97997.50;5057295;28;20264;-55
2022/11/11 01:05:14;;;;;;;18.93;14.73;;;;;;;8.36;100.00;97998.53;5057299;28;20298;-56
2022/11/11 01:07:41;;;;;;;18.13;14.90;;;;;;;8.40;100.00;98002.66;5057398;28;20289;-55
2022/11/11 01:10:10;;;;;;;16.77;14.57;;;;;;;8.42;100.00;98008.69;5057276;28;20281;-55
2022/11/11 01:12:40;;;;;;;18.50;14.90;;;;;;;8.44;100.00;98019.97;5056357;28;20235;-54
2022/11/11 01:15:07;;;;;;;18.87;14.73;;;;;;;8.44;100.00;98016.50;5059490;28;20234;-56
2022/11/11 01:17:34;;;;;;;17.67;15.63;;;;;;;8.43;100.00;98020.09;5063422;28;20590;-56
2022/11/11 01:20:00;;;;;;;18.90;14.77;;;;;;;8.42;100.00;98018.41;5057318;28;20211;-55
2022/11/11 01:22:30;;;;;;;16.83;14.50;;;;;;;8.41;100.00;98022.81;5055713;28;20239;-57
2022/11/11 01:24:57;;;;;;;15.83;13.53;;;;;;;8.47;100.00;98027.69;5059842;28;20238;-55
2022/11/11 01:27:24;;;;;;;21.47;15.67;;;;;;;8.52;100.00;98023.94;5077328;28;20301;-57
2022/11/11 01:29:53;;;;;;;19.40;15.67;;;;;;;8.49;100.00;98009.16;5060620;28;20262;-55
2022/11/11 01:32:21;;;;;;;20.53;16.43;;;;;;;8.47;100.00;98017.16;5056161;28;20297;-56
2022/11/11 01:34:47;;;;;;;19.13;15.90;;;;;;;8.47;100.00;98017.16;5055661;28;20322;-55
2022/11/11 01:37:14;;;;;;;19.60;15.93;;;;;;;8.49;100.00;98014.44;5057172;28;20305;-56
2022/11/11 01:39:41;;;;;;;22.47;17.10;;;;;;;8.46;100.00;98009.34;5057005;28;20237;-56
2022/11/11 01:42:08;;;;;;;18.83;16.00;;;;;;;8.49;100.00;98011.78;5060042;28;20238;-56
2022/11/11 01:44:43;;;;;;;18.70;15.77;;;;;;;8.52;100.00;98019.50;5056414;28;20721;-56
2022/11/11 01:47:12;;;;;;;18.30;16.00;;;;;;;8.53;100.00;98017.72;5056061;28;20628;-56
2022/11/11 01:49:43;;;;;;;20.80;15.90;;;;;;;8.53;100.00;98017.72;5056593;28;20321;-56
2022/11/11 01:52:12;;;;;;;21.63;15.87;;;;;;;8.56;100.00;98020.16;5056753;28;20227;-55
2022/11/11 01:54:42;;;;;;;17.20;15.37;;;;;;;8.56;100.00;98020.16;5056523;28;20215;-55
2022/11/11 01:57:13;;;;;;;18.87;15.67;;;;;;;8.56;100.00;98015.72;5056917;28;20632;-54
2022/11/11 01:59:42;;;;;;;18.20;14.93;;;;;;;8.59;100.00;98012.03;5057042;28;20576;-54
2022/11/11 02:02:14;;;;;;;21.33;16.00;;;;;;;8.60;100.00;98011.09;5056024;28;20709;-55
2022/11/11 02:07:26;;;;;;;20.77;16.80;;;;;;;8.60;100.00;98011.97;5085624;28;20210;-56
2022/11/11 02:09:53;;;;;;;21.23;17.50;;;;;;;8.64;100.00;98017.88;5072313;28;20231;-56
2022/11/11 02:15:05;;;;;;;23.63;16.67;;;;;;;8.66;100.00;98031.81;5056215;28;20213;-56
2022/11/11 02:17:33;;;;;;;20.60;16.70;;;;;;;8.67;100.00;98039.63;5055982;28;20249;-55
2022/11/11 02:20:01;;;;;;;22.13;16.83;;;;;;;8.68;100.00;98038.66;5056415;28;20234;-54
2022/11/11 02:22:34;;;;;;;19.63;15.47;;;;;;;8.70;100.00;98026.25;5055621;28;20239;-54
2022/11/11 02:25:04;;;;;;;17.87;15.87;;;;;;;8.69;100.00;98032.47;5059184;28;20285;-54
2022/11/11 02:27:31;;;;;;;21.00;15.87;;;;;;;8.68;100.00;98038.66;5065210;28;20239;-55
2022/11/11 02:29:59;;;;;;;22.43;15.30;;;;;;;8.65;100.00;98038.00;5067866;28;20233;-56
2022/11/11 02:32:26;;;;;;;20.60;16.23;;;;;;;8.65;100.00;98045.94;5066062;28;20241;-56
2022/11/11 02:34:53;;;;;;;20.30;15.30;;;;;;;8.65;100.00;98052.06;5066999;28;20203;-55
2022/11/11 02:37:23;;;;;;;23.13;16.70;;;;;;;8.59;100.00;98060.38;5065022;28;20268;-55
2022/11/11 02:39:51;;;;;;;19.97;15.67;;;;;;;8.59;100.00;98064.78;5055141;28;20231;-57
2022/11/11 02:42:20;;;;;;;21.87;16.10;;;;;;;8.63;100.00;98063.66;5057699;28;20234;-56
2022/11/11 02:44:47;;;;;;;23.00;16.90;;;;;;;8.61;100.00;98068.19;5055487;28;20685;-55
2022/11/11 02:47:14;;;;;;;22.30;16.00;;;;;;;8.62;100.00;98075.97;5055879;28;20300;-56
2022/11/11 02:49:41;;;;;;;24.63;16.77;;;;;;;8.65;100.00;98078.44;5055524;28;20314;-56
2022/11/11 02:52:07;;;;;;;19.50;15.93;;;;;;;8.68;100.00;98072.94;5055516;28;20285;-54
2022/11/11 02:54:34;;;;;;;21.60;15.77;;;;;;;8.72;100.00;98073.59;5055177;28;20306;-54
2022/11/11 02:57:07;;;;;;;25.07;16.77;;;;;;;8.74;100.00;98067.31;5067202;28;20206;-57
2022/11/11 02:59:35;;;;;;;26.23;16.47;;;;;;;8.77;100.00;98071.53;5056430;28;20281;-56
2022/11/11 03:02:02;;;;;;;23.17;17.00;;;;;;;8.71;100.00;98066.66;5055576;28;20603;-55
2022/11/11 03:04:29;;;;;;;22.07;15.97;;;;;;;8.78;100.00;98076.72;5056090;28;20673;-57
2022/11/11 03:06:56;;;;;;;23.97;16.80;;;;;;;8.81;100.00;98084.44;5057197;28;20206;-55
2022/11/11 03:09:23;;;;;;;23.50;16.80;;;;;;;8.80;100.00;98087.16;5056044;28;20262;-56
2022/11/11 03:11:49;;;;;;;24.90;16.33;;;;;;;8.79;100.00;98096.88;5057623;28;20248;-55
2022/11/11 03:14:16;;;;;;;24.47;17.50;;;;;;;8.82;100.00;98099.31;5059441;28;20303;-57
2022/11/11 03:19:28;;;;;;;23.93;17.07;;;;;;;8.80;100.00;98113.53;5060309;28;20206;-56
2022/11/11 03:21:54;;;;;;;30.73;18.23;;;;;;;8.83;100.00;98118.63;5056253;28;20246;-56
2022/11/11 03:24:21;;;;;;;23.63;17.63;;;;;;;8.86;100.00;98110.50;5055959;28;20234;-54
2022/11/11 03:26:47;;;;;;;22.67;17.20;;;;;;;8.85;100.00;98122.03;5055464;28;20293;-56
2022/11/11 03:29:13;;;;;;;21.53;17.13;;;;;;;8.86;100.00;98113.16;5055023;28;20233;-56
2022/11/11 03:31:40;;;;;;;23.97;17.03;;;;;;;8.85;100.00;98111.47;5054141;28;20271;-54
2022/11/11 03:34:20;;;;;;;23.20;18.33;;;;;;;8.80;100.00;98105.63;5054169;28;20251;-54
2022/11/11 03:39:31;;;;;;;22.80;17.30;;;;;;;8.84;100.00;98110.63;5054385;28;20233;-55
2022/11/11 03:41:58;;;;;;;29.43;17.63;;;;;;;8.85;100.00;98111.47;5057648;28;20572;-56
2022/11/11 03:44:27;;;;;;;22.93;17.80;;;;;;;8.85;100.00;98116.75;5054448;28;20203;-56
2022/11/11 03:46:54;;;;;;;21.40;16.97;;;;;;;8.87;100.00;98120.13;5060063;28;20237;-53
2022/11/11 03:49:22;;;;;;;25.13;18.27;;;;;;;8.89;100.00;98116.44;5054289;28;20237;-55
2022/11/11 03:51:49;;;;;;;22.50;18.20;;;;;;;8.87;100.00;98125.41;5054035;28;20297;-55
2022/11/11 03:54:15;;;;;;;27.53;18.67;;;;;;;8.87;100.00;98133.31;5054413;28;20247;-56
2022/11/11 03:56:42;;;;;;;27.53;18.80;;;;;;;8.83;100.00;98132.66;5054085;28;20222;-56
2022/11/11 03:59:09;;;;;;;24.73;17.80;;;;;;;8.90;100.00;98131.34;5054578;28;20250;-56
2022/11/11 04:16:04;;;;;;;25.17;17.83;;;;;;;8.92;100.00;98150.56;5054138;28;20273;-55
2022/11/11 04:18:05;;;;;;;23.53;16.70;;;;;;;8.95;100.00;98154.81;5054903;28;20218;-56
2022/11/11 04:23:17;;;;;;;22.07;16.20;;;;;;;8.91;100.00;98137.47;5054958;28;20543;-56
2022/11/11 04:25:49;;;;;;;19.93;15.60;;;;;;;8.95;100.00;98141.63;5054666;28;20238;-56
2022/11/11 04:30:59;;;;;;;20.17;17.03;;;;;;;8.90;100.00;98141.03;5028828;28;20270;-56
2022/11/11 04:33:25;;;;;;;27.83;18.20;;;;;;;8.92;100.00;98149.72;5071930;28;20234;-56
2022/11/11 04:35:52;;;;;;;23.43;16.93;;;;;;;8.93;100.00;98156.66;5084618;28;20202;-56
2022/11/11 04:41:07;;;;;;;21.23;16.23;;;;;;;9.00;100.00;98150.06;5083872;28;20193;-55
2022/11/11 04:45:26;;;;;;;27.13;17.07;;;;;;;8.97;100.00;98156.41;5079177;28;20221;-61
2022/11/11 04:46:21;;;;;;;25.03;17.67;;;;;;;9.04;100.00;98148.94;5079206;28;20198;-57
2022/11/11 04:48:47;;;;;;;23.27;17.33;;;;;;;9.01;100.00;98141.22;5088071;28;20230;-56
2022/11/11 04:51:14;;;;;;;26.73;17.83;;;;;;;9.03;100.00;98143.78;5071014;28;20242;-56
2022/11/11 04:53:42;;;;;;;30.03;18.47;;;;;;;8.97;100.00;98145.00;5066184;28;20207;-57
2022/11/11 04:59:14;;;;;;;30.20;18.17;;;;;;;9.01;100.00;98149.13;5058908;28;20210;-54
2022/11/11 05:04:36;;;;;;;26.33;18.23;;;;;;;9.05;100.00;98139.22;5004256;28;20519;-56
2022/11/11 05:09:48;;;;;;;26.13;17.47;;;;;;;9.17;100.00;98143.75;5055915;28;20552;-57
2022/11/11 05:12:15;;;;;;;25.90;18.00;;;;;;;9.14;100.00;98143.94;5056462;28;20207;-57
2022/11/11 05:22:54;;;;;;;27.13;17.93;;;;;;;9.17;100.00;98127.91;5056445;28;20264;-57
2022/11/11 05:25:24;;;;;;;25.93;19.27;;;;;;;9.20;100.00;98122.44;5075681;28;20293;-57
2022/11/11 05:27:51;;;;;;;27.80;19.93;;;;;;;9.21;100.00;98124.13;5077417;28;20538;-58
2022/11/11 05:30:18;;;;;;;31.20;20.97;;;;;;;9.21;100.00;98129.41;5056789;28;20675;-57
2022/11/11 05:32:44;;;;;;;29.20;20.93;;;;;;;9.20;100.00;98125.91;5056696;28;20273;-57
2022/11/11 05:35:12;;;;;;;28.50;21.83;;;;;;;9.20;100.00;98119.78;5056985;28;20589;-56
2022/11/11 05:37:41;;;;;;;25.37;20.70;;;;;;;9.21;100.00;98129.41;5056628;28;20221;-57
2022/11/11 05:40:09;;;;;;;29.27;22.00;;;;;;;9.19;100.00;98128.66;5057133;28;20240;-56
2022/11/11 05:42:41;;;;;;;26.10;20.83;;;;;;;9.22;100.00;98123.16;5059951;28;20243;-57
2022/11/11 05:45:09;;;;;;;27.53;21.83;;;;;;;9.24;100.00;98137.97;5057839;28;20227;-57
2022/11/11 05:47:36;;;;;;;25.60;20.13;;;;;;;9.26;100.00;98143.16;5056137;28;20207;-57
2022/11/11 05:50:03;;;;;;;24.37;19.10;;;;;;;9.33;100.00;98144.44;5056961;28;20678;-57
2022/11/11 05:52:30;;;;;;;23.30;19.60;;;;;;;9.28;100.00;98143.91;5055800;28;20298;-58
2022/11/11 05:54:57;;;;;;;26.13;19.47;;;;;;;9.24;100.00;98134.50;5056673;28;20284;-58
2022/11/11 05:57:24;;;;;;;22.30;17.93;;;;;;;9.30;100.00;98144.66;5056032;28;20298;-57
2022/11/11 05:59:53;;;;;;;24.97;19.77;;;;;;;9.23;100.00;98149.47;5056800;28;20282;-57
2022/11/11 06:02:20;;;;;;;22.00;18.40;;;;;;;9.26;100.00;98143.16;5056421;28;20282;-56
2022/11/11 06:04:47;;;;;;;24.93;19.77;;;;;;;9.27;100.00;98148.34;5056676;28;20206;-57
2022/11/11 06:07:13;;;;;;;24.60;19.47;;;;;;;9.29;100.00;98148.22;5059682;28;20292;-57
2022/11/11 06:09:41;;;;;;;24.93;18.60;;;;;;;9.26;100.00;98151.06;5075787;28;20254;-57
2022/11/11 06:12:08;;;;;;;26.93;18.30;;;;;;;9.29;100.00;98150.88;5075540;28;20555;-57
2022/11/11 06:14:35;;;;;;;22.03;17.90;;;;;;;9.30;100.00;98160.50;5076257;28;20230;-57
2022/11/11 06:17:03;;;;;;;22.77;17.67;;;;;;;9.29;100.00;98164.91;5076600;28;20245;-57
2022/11/11 06:19:29;;;;;;;25.40;18.63;;;;;;;9.29;100.00;98174.63;5075054;28;20249;-57
2022/11/11 06:22:00;;;;;;;27.07;18.47;;;;;;;9.28;100.00;98183.50;5070650;28;20242;-57
2022/11/11 06:24:27;;;;;;;22.60;18.33;;;;;;;9.28;100.00;98183.50;5057509;28;20632;-57
2022/11/11 06:26:54;;;;;;;26.33;19.00;;;;;;;9.30;100.00;98202.72;5055801;28;20647;-56
2022/11/11 06:29:21;;;;;;;22.13;17.63;;;;;;;9.29;100.00;98204.50;5055901;28;20612;-57
2022/11/11 06:31:48;;;;;;;24.47;17.50;;;;;;;9.30;100.00;98206.22;5054999;28;20710;-57
2022/11/11 06:34:16;;;;;;;20.23;16.57;;;;;;;9.31;100.00;98213.19;5055704;28;20293;-56
2022/11/11 06:36:43;;;;;;;23.03;17.53;;;;;;;9.34;100.00;98217.44;5055896;28;20654;-57
2022/11/11 06:39:10;;;;;;;25.07;17.97;;;;;;;9.35;100.00;98227.06;5054844;28;20295;-57
2022/11/11 06:41:37;;;;;;;20.27;16.73;;;;;;;9.38;100.00;98226.84;5058012;28;20253;-58
2022/11/11 06:44:04;;;;;;;22.53;17.47;;;;;;;9.39;100.00;98228.53;5055839;28;20199;-57
2022/11/11 06:46:33;;;;;;;23.87;17.93;;;;;;;9.40;100.00;98230.22;5055966;28;20231;-57
2022/11/11 06:48:59;;;;;;;23.10;16.70;;;;;;;9.42;100.00;98231.81;5055845;28;20650;-58
2022/11/11 06:51:27;;;;;;;21.17;16.63;;;;;;;9.43;100.00;98232.69;5054856;28;20255;-57
2022/11/11 06:53:54;;;;;;;22.23;17.27;;;;;;;9.41;100.00;98226.66;5055190;28;20207;-57
2022/11/11 06:56:24;;;;;;;22.67;17.53;;;;;;;9.45;100.00;98222.88;5055847;28;20207;-56
2022/11/11 06:58:51;;;;;;;22.37;18.23;;;;;;;9.42;100.00;98223.91;5055523;28;20210;-56
2022/11/11 07:01:17;;;;;;;21.47;18.03;;;;;;;9.44;100.00;98229.09;5055052;28;20231;-57
2022/11/11 07:03:44;;;;;;;21.23;17.80;;;;;;;9.46;100.00;98238.63;5060941;28;20257;-56
2022/11/11 07:06:11;;;;;;;21.57;17.07;;;;;;;9.52;100.00;98244.47;5063940;28;20230;-56
2022/11/11 07:08:43;;;;;;;23.37;18.27;;;;;;;9.52;100.00;98247.97;5070870;28;20402;-57
2022/11/11 07:11:09;;;;;;;24.63;17.80;;;;;;;9.51;100.00;98254.19;5065771;28;20544;-56
2022/11/11 07:13:36;;;;;;;19.47;16.87;;;;;;;9.55;100.00;98260.13;5071497;28;20655;-56
2022/11/11 07:16:03;;;;;;;20.60;17.90;;;;;;;9.58;100.00;98265.19;5076262;28;20252;-57
2022/11/11 07:18:30;;;;;;;21.23;17.70;;;;;;;9.57;100.00;98272.25;5058042;28;20613;-57
2022/11/11 07:20:57;;;;;;;20.83;17.17;;;;;;;9.62;100.00;98264.06;5055249;28;20584;-57
2022/11/11 07:23:23;;;;;;;22.00;16.93;;;;;;;9.66;100.00;98271.69;5054748;28;20207;-57
2022/11/11 07:25:53;;;;;;;21.83;16.33;;;;;;;9.69;100.00;98268.00;5054707;28;20302;-57
2022/11/11 07:28:20;;;;;;;20.00;15.77;;;;;;;9.71;100.00;98266.09;5055994;28;20301;-56
2022/11/11 07:30:46;;;;;;;18.07;16.07;;;;;;;9.75;100.00;98267.59;5063199;28;20561;-57
2022/11/11 07:33:13;;;;;;;20.83;17.13;;;;;;;9.75;100.00;98279.03;5060944;28;20276;-56
2022/11/11 07:35:39;;;;;;;19.83;16.77;;;;;;;9.79;100.00;98272.59;5060522;28;20203;-55
2022/11/11 07:38:06;;;;;;;19.27;16.70;;;;;;;9.83;100.00;98276.75;5054883;28;20282;-56
2022/11/11 07:40:34;;;;;;;19.07;16.47;;;;;;;9.88;100.00;98282.56;5055451;28;20817;-57
2022/11/11 07:43:02;;;;;;;17.60;14.63;;;;;;;9.95;100.00;98286.50;5056842;28;20242;-57
2022/11/11 07:45:28;;;;;;;20.47;16.67;;;;;;;9.97;100.00;98292.56;5054863;28;20302;-56
2022/11/11 07:47:55;;;;;;;20.03;16.40;;;;;;;10.05;100.00;98305.28;5054828;28;20290;-55
2022/11/11 07:50:22;;;;;;;19.70;15.70;;;;;;;10.09;100.00;98303.28;5054675;28;20310;-57
2022/11/11 07:52:49;;;;;;;18.60;14.67;;;;;;;10.14;100.00;98304.72;5055544;28;20296;-57
2022/11/11 07:55:16;;;;;;;17.10;14.97;;;;;;;10.21;100.00;98306.00;5075450;28;20206;-55
2022/11/11 07:57:45;;;;;;;16.30;14.60;;;;;;;10.27;100.00;98308.25;5075508;28;20272;-56
2022/11/11 08:00:14;;;;;;;18.87;16.13;;;;;;;10.29;100.00;98308.16;5081625;28;20241;-57
2022/11/11 08:02:42;;;;;;;17.87;15.67;;;;;;;10.32;100.00;98307.94;5067117;28;20198;-57
2022/11/11 08:05:10;;;;;;;20.67;15.30;;;;;;;10.37;100.00;98303.22;5075772;28;20307;-56
2022/11/11 08:07:37;;;;;;;18.10;15.10;;;;;;;10.35;100.00;98300.66;5062674;28;20268;-56
2022/11/11 08:10:05;;;;;;;17.33;14.80;;;;;;;10.40;100.00;98300.38;5075184;28;20266;-57
2022/11/11 08:15:17;;;;;;;15.77;14.17;;;;;;;10.46;100.00;98300.81;5071459;28;20704;-57
2022/11/11 08:17:44;;;;;;;14.27;12.87;;;;;;;10.48;100.00;98300.72;5054699;28;20301;-57
2022/11/11 08:20:12;;;;;;;15.23;13.63;;;;;;;10.51;100.00;98297.84;5058807;28;20632;-56
2022/11/11 08:22:39;;;;;;;15.73;14.03;;;;;;;10.54;100.00;98289.72;5063800;28;20215;-57
2022/11/11 08:25:07;;;;;;;15.27;13.43;;;;;;;10.58;100.00;98296.50;5055441;28;20253;-56
2022/11/11 08:27:34;;;;;;;15.50;13.93;;;;;;;10.62;100.00;98292.69;5056495;28;20218;-57
2022/11/11 08:30:00;;;;;;;18.43;13.50;;;;;;;10.65;100.00;98292.50;5060895;28;20257;-55
2022/11/11 08:32:28;;;;;;;15.00;13.50;;;;;;;10.70;100.00;98292.19;5073846;28;20272;-56
2022/11/11 08:34:58;;;;;;;12.63;11.43;;;;;;;10.69;100.00;98296.63;5074836;28;20213;-56
2022/11/11 08:37:24;;;;;;;13.60;12.20;;;;;;;10.71;100.00;98293.88;5062546;28;20203;-55
2022/11/11 08:39:51;;;;;;;13.43;12.00;;;;;;;10.76;100.00;98297.06;5055076;28;20210;-56
2022/11/11 08:42:18;;;;;;;13.90;12.50;;;;;;;10.77;100.00;98296.13;5058582;28;20226;-56
2022/11/11 08:44:45;;;;;;;13.20;11.90;;;;;;;10.82;100.00;98292.19;5060737;28;20239;-56
2022/11/11 08:47:12;;;;;;;12.70;11.40;;;;;;;10.88;100.00;98304.16;5072752;28;20198;-57
2022/11/11 08:49:40;;;;;;;11.43;10.33;;;;;;;10.95;100.00;98308.91;5079342;28;20208;-57
2022/11/11 08:52:06;;;;;;;12.80;11.03;;;;;;;10.98;100.00;98305.25;5079328;28;20258;-57
2022/11/11 08:54:33;;;;;;;12.63;11.43;;;;;;;11.03;100.00;98300.47;5057937;28;20249;-57
2022/11/11 08:57:00;;;;;;;13.03;11.53;;;;;;;11.05;100.00;98301.22;5058544;28;20199;-57
2022/11/11 08:59:26;;;;;;;12.90;11.70;;;;;;;11.11;100.00;98289.34;5065540;28;20263;-57
2022/11/11 09:01:53;;;;;;;13.20;11.97;;;;;;;11.13;100.00;98292.72;5077492;28;20199;-57
2022/11/11 09:04:20;;;;;;;12.27;11.03;;;;;;;11.13;100.00;98298.00;5077146;28;20646;-56
2022/11/11 09:06:48;;;;;;;11.80;10.70;;;;;;;11.09;100.00;98300.03;5074239;28;20239;-57
2022/11/11 09:09:15;;;;;;;11.70;10.50;;;;;;;11.11;100.00;98294.63;5057510;28;20246;-57
2022/11/11 09:11:41;;;;;;;12.37;11.20;;;;;;;11.15;100.00;98290.81;5071739;28;20265;-57
2022/11/11 09:14:09;;;;;;;10.87;9.87;;;;;;;11.18;100.00;98301.22;5077512;28;20257;-58
2022/11/11 09:16:36;;;;;;;11.90;10.70;;;;;;;11.22;100.00;98292.94;5076169;28;20241;-57
2022/11/11 09:19:03;;;;;;;11.43;10.33;;;;;;;11.26;100.00;98293.59;5057560;28;20202;-57
2022/11/11 09:21:31;;;;;;;11.03;9.90;;;;;;;11.25;100.00;98303.31;5057576;28;20290;-57
2022/11/11 09:23:59;;;;;;;11.33;10.23;;;;;;;11.25;100.00;98305.13;5057492;28;20227;-57
2022/11/11 09:26:26;;;;;;;12.33;11.03;;;;;;;11.25;100.00;98299.81;5056737;28;20203;-57
2022/11/11 09:28:53;;;;;;;11.57;10.47;;;;;;;11.27;100.00;98303.19;5057339;28;20303;-56
2022/11/11 09:31:19;;;;;;;11.63;10.43;;;;;;;11.26;100.00;98299.72;5056805;28;20323;-57
2022/11/11 09:33:46;;;;;;;11.00;9.87;;;;;;;11.27;100.00;98295.25;5067326;28;20241;-56
2022/11/11 09:36:13;;;;;;;12.83;10.37;;;;;;;11.27;100.00;98301.41;5075130;28;20237;-57
2022/11/11 09:38:40;;;;;;;10.57;9.60;;;;;;;11.32;100.00;98293.16;5056106;28;20239;-56
2022/11/11 09:41:19;;;;;;;10.40;9.40;;;;;;;11.36;100.00;98298.13;5059743;28;20770;-57
2022/11/11 09:43:53;;;;;;;11.40;10.30;;;;;;;11.37;100.00;98299.81;5068800;28;20286;-57
2022/11/11 09:46:27;;;;;;;11.40;10.30;;;;;;;11.41;100.00;98298.63;5059646;28;20285;-57
2022/11/11 09:49:14;;;;;;;10.20;9.23;;;;;;;11.46;100.00;98299.19;5056246;28;20288;-56
2022/11/11 09:51:47;;;;;;;10.20;9.30;;;;;;;11.49;100.00;98301.59;5056468;28;20315;-57
2022/11/11 09:54:17;;;;;;;10.90;9.90;;;;;;;11.52;100.00;98304.97;5055987;28;20231;-57
2022/11/11 09:56:45;;;;;;;10.67;9.57;;;;;;;11.59;100.00;98293.84;5057282;28;20235;-57
2022/11/11 09:59:16;;;;;;;11.07;10.07;;;;;;;11.61;100.00;98291.94;5074226;28;20289;-57
2022/11/11 10:01:45;;;;;;;10.93;9.93;;;;;;;11.66;100.00;98295.09;5076607;28;20698;-57
2022/11/11 10:04:27;;;;;;;10.90;9.90;;;;;;;11.64;100.00;98289.06;5076904;28;20591;-56
2022/11/11 10:07:00;;;;;;;12.17;11.00;;;;;;;11.65;100.00;98288.13;5065151;28;20206;-57
2022/11/11 10:09:31;;;;;;;10.90;9.90;;;;;;;11.70;100.00;98277.16;5058300;28;20203;-57
2022/11/11 10:12:08;;;;;;;11.30;10.20;;;;;;;11.73;100.00;98279.63;5059780;28;20290;-56
2022/11/11 10:14:37;;;;;;;12.20;11.10;;;;;;;11.73;100.00;98272.53;5075655;28;20305;-57
2022/11/11 10:17:13;;;;;;;11.80;10.67;;;;;;;11.81;100.00;98269.31;5076401;28;20640;-57
2022/11/11 10:19:50;;;;;;;11.70;10.60;;;;;;;11.82;100.00;98263.94;5057250;28;20226;-57
2022/11/11 10:22:21;;;;;;;11.10;10.10;;;;;;;11.86;100.00;98261.91;5059671;28;20525;-57
2022/11/11 10:24:55;;;;;;;12.57;11.43;;;;;;;11.94;100.00;98263.03;5068643;28;20231;-57
2022/11/11 10:27:23;;;;;;;13.40;10.40;;;;;;;11.90;100.00;98258.91;5071286;28;20192;-55
2022/11/11 10:29:50;;;;;;;10.67;9.67;;;;;;;11.88;100.00;98257.31;5056603;28;20246;-57
2022/11/11 10:32:20;;;;;;;10.80;9.70;;;;;;;11.94;100.00;98254.22;5055516;28;20327;-57
2022/11/11 10:34:47;;;;;;;11.20;10.10;;;;;;;12.02;100.00;98245.69;5056768;28;20559;-57
2022/11/11 10:37:19;;;;;;;10.70;9.70;;;;;;;12.12;100.00;98252.00;5056716;28;20282;-57
2022/11/11 10:39:54;;;;;;;10.77;9.83;;;;;;;12.14;100.00;98253.63;5075334;28;20202;-57
2022/11/11 10:42:21;;;;;;;10.77;9.77;;;;;;;12.16;100.00;98248.19;5066391;28;20194;-57
2022/11/11 10:44:49;;;;;;;11.20;10.20;;;;;;;12.07;100.00;98240.91;5097239;28;20217;-57
2022/11/11 10:47:19;;;;;;;10.63;9.63;;;;;;;12.06;100.00;98236.56;5073372;28;20230;-57
2022/11/11 10:49:53;;;;;;;11.60;10.50;;;;;;;12.09;100.00;98234.53;5070052;28;20229;-57
2022/11/11 10:52:23;;;;;;;11.43;10.30;;;;;;;12.02;100.00;98235.94;5075254;28;20263;-56
2022/11/11 10:54:53;;;;;;;10.67;9.67;;;;;;;12.03;100.00;98237.66;5075395;28;20707;-57
2022/11/11 10:57:24;;;;;;;11.33;10.33;;;;;;;12.10;100.00;98230.09;5075507;28;20649;-55
2022/11/11 10:59:54;;;;;;;11.70;10.50;;;;;;;12.10;100.00;98232.72;5076347;28;20298;-56
2022/11/11 11:02:22;;;;;;;11.37;10.27;;;;;;;12.16;100.00;98224.31;5074722;28;20198;-58
2022/11/11 11:04:52;;;;;;;10.83;9.70;;;;;;;12.16;100.00;98224.31;5074572;28;20555;-58
2022/11/11 11:07:21;;;;;;;11.07;10.07;;;;;;;12.17;100.00;98218.06;5071601;28;20237;-57
2022/11/11 11:09:51;;;;;;;11.23;10.13;;;;;;;12.25;100.00;98210.38;5074371;28;20210;-57
2022/11/11 11:12:22;;;;;;;11.50;10.37;;;;;;;12.29;100.00;98217.16;5074073;28;20222;-57
2022/11/11 11:14:53;;;;;;;11.20;10.13;;;;;;;12.30;100.00;98213.50;5075121;28;20194;-57
2022/11/11 11:17:23;;;;;;;11.03;9.97;;;;;;;12.29;100.00;98211.84;5054649;28;20235;-57
2022/11/11 11:20:08;;;;;;;11.53;10.43;;;;;;;12.39;100.00;98212.84;5054945;28;20605;-57
2022/11/11 11:22:46;;;;;;;11.10;10.00;;;;;;;12.37;100.00;98204.13;5054236;28;20609;-57
2022/11/11 11:25:14;;;;;;;10.90;9.80;;;;;;;12.42;100.00;98208.16;5054793;28;20617;-57
2022/11/11 11:27:41;;;;;;;11.03;10.00;;;;;;;12.43;100.00;98203.69;5054539;28;20199;-56
2022/11/11 11:30:17;;;;;;;11.67;9.83;;;;;;;12.43;100.00;98193.91;5055205;28;20222;-56
2022/11/11 11:32:56;;;;;;;10.13;9.23;;;;;;;12.46;100.00;98198.16;5054358;28;20658;-57
2022/11/11 11:35:33;;;;;;;10.53;9.53;;;;;;;12.54;100.00;98190.41;5055183;28;20206;-57
2022/11/11 11:38:00;;;;;;;10.87;9.80;;;;;;;12.60;100.00;98184.66;5054728;28;20202;-57
2022/11/11 11:40:30;;;;;;;10.90;9.90;;;;;;;12.69;100.00;98186.59;5054764;28;20250;-57
2022/11/11 11:42:57;;;;;;;9.53;8.73;;;;;;;12.74;99.70;98192.41;5054992;28;20226;-56
2022/11/11 11:45:28;;;;;;;11.07;10.00;;;;;;;12.78;98.33;98195.69;5053614;28;20692;-57
2022/11/11 11:48:07;;;;;;;10.77;9.77;;;;;;;12.79;97.14;98192.03;5055320;28;20191;-57
2022/11/11 11:50:42;;;;;;;10.17;9.17;;;;;;;12.86;97.50;98186.13;5054619;28;20295;-58
2022/11/11 11:53:26;;;;;;;10.43;9.50;;;;;;;12.88;97.47;98188.69;5061931;28;20258;-58
2022/11/11 11:55:56;;;;;;;10.73;9.73;;;;;;;12.85;96.69;98187.13;5075513;28;20203;-57
2022/11/11 11:58:33;;;;;;;9.67;8.73;;;;;;;12.88;96.73;98184.22;5075106;28;20230;-57
2022/11/11 12:01:04;;;;;;;9.57;8.57;;;;;;;12.94;97.16;98183.72;5073022;28;20657;-57
2022/11/11 12:04:18;;;;;;;9.97;9.07;;;;;;;12.98;96.94;98179.88;5062147;28;20238;-56
2022/11/11 12:06:52;;;;;;;10.63;9.60;;;;;;;13.04;97.50;98177.72;4960184;28;20240;-56
2022/11/11 12:09:28;;;;;;;17.80;15.80;;;;;;;13.12;97.78;98172.66;5054651;28;20241;-57
2022/11/11 12:11:59;;;;;;;10.70;9.70;;;;;;;13.23;98.11;98170.00;5054041;28;20221;-57
2022/11/11 12:14:47;;;;;;;9.17;8.37;;;;;;;13.25;96.21;98174.22;5058012;28;20670;-58
2022/11/11 12:17:29;;;;;;;10.10;9.20;;;;;;;13.32;97.13;98175.41;5065674;28;20663;-56
2022/11/11 12:20:03;;;;;;;9.97;9.10;;;;;;;13.38;95.80;98184.72;5062014;28;20206;-58
2022/11/11 12:22:37;;;;;;;10.00;9.10;;;;;;;13.46;96.53;98180.44;5067498;28;20225;-57
2022/11/11 12:25:13;;;;;;;10.80;9.80;;;;;;;13.57;96.41;98170.81;5077854;28;20255;-56
2022/11/11 12:27:48;;;;;;;10.63;9.63;;;;;;;13.51;93.40;98182.75;5081919;28;20216;-57
2022/11/11 12:30:18;;;;;;;11.33;9.37;;;;;;;13.48;94.29;98177.69;5082189;28;20272;-57
2022/11/11 12:33:10;;;;;;;12.17;10.87;;;;;;;13.41;93.18;98171.19;5064539;28;20648;-58
2022/11/11 12:35:58;;;;;;;10.50;9.50;;;;;;;13.43;95.07;98169.22;5064268;28;20202;-58